Terminal Aerodrome Forecast
Issued by NWS Milwaukee/Sullivan, WI

Home | Current Version | Previous Version | Text Only | Print | Product List | Glossary On
Versions: 1 2 3 4 5 6 7 8 9 10 11 12 13 14 15 16 17 18 19 20 21 22 23 24 25 26 27 28 29 30 31 32
000
FTUS43 KMKX 292036 AAB
TAFMKE
TAF AMD
KMKE 292036Z 2921/3024 04010KT P6SM SCT035
     FM300000 03007KT P6SM SCT120
     FM300800 07008KT P6SM BKN035
     FM301400 07012G20KT P6SM BKN045 OVC090
     FM302000 05015KT 6SM RA OVC070
     FM302200 04015KT 3SM RA OVC025=

USA.gov is the U.S. government's official web portal to all federal, state and local government web resources and services.